Date,TemperatureHighF,TemperatureAvgF,TemperatureLowF,DewpointHighF,DewpointAvgF,DewpointLowF,HumidityHigh,HumidityAvg,HumidityLow,PressureMaxIn,PressureMinIn,WindSpeedMaxMPH,WindSpeedAvgMPH,GustSpeedMaxMPH,PrecipitationSumIn
2013-5-1,62,53,45,51,42,36,86,67,54,30.29,30.16,6,4,14,0.00
2013-5-2,46,42,39,43,38,35,92,86,73,30.31,30.19,10,4,11,0.00
2013-5-3,51,42,38,46,39,35,93,88,82,30.25,30.06,6,1,7,0.00
2013-5-4,72,51,38,51,43,34,97,76,38,30.15,30.05,7,1,8,0.00
2013-5-5,74,53,42,47,41,34,85,67,31,30.15,30.03,6,1,8,0.00
2013-5-6,71,52,41,48,43,38,91,74,32,30.14,30.01,7,1,7,0.00
2013-5-7,70,54,42,48,42,36,85,67,38,30.12,29.99,7,1,8,0.00
2013-5-8,64,55,47,50,44,40,86,66,44,30.07,29.97,5,1,5,0.00
2013-5-9,65,50,44,50,44,40,93,79,56,30.03,29.94,6,2,12,0.04
2013-5-10,46,42,38,45,39,37,100,92,84,30.04,29.96,4,1,8,0.48
2013-5-11,43,38,33,42,36,32,100,92,79,29.99,29.75,18,5,19,0.06
2013-5-12,39,36,34,36,32,28,94,82,70,30.13,29.83,24,16,29,0.00
2013-5-13,47,41,36,37,30,24,80,68,43,30.21,30.06,11,4,12,0.00
2013-5-14,64,50,41,46,38,29,79,64,43,30.06,29.60,7,2,8,0.00
2013-5-15,60,52,45,48,45,42,89,75,54,29.80,29.46,9,4,10,0.00
2013-5-16,53,48,42,45,42,39,93,82,70,30.10,29.78,6,2,6,0.00
2013-5-17,65,49,41,48,43,38,91,80,48,30.23,30.10,1,0,4,0.00
2013-5-18,74,60,51,52,48,43,93,67,41,30.20,30.02,2,0,5,0.00
2013-5-19,84,62,52,64,52,45,92,72,46,30.02,29.81,6,0,9,0.00
2013-5-20,84,65,52,70,61,48,97,87,58,29.87,29.68,5,1,7,0.17
2013-5-21,72,61,49,64,59,47,99,94,75,29.77,29.65,7,1,8,0.33
2013-5-22,58,52,48,58,52,48,100,99,98,29.76,29.66,3,0,6,0.26
2013-5-23,52,45,40,52,40,34,100,84,62,30.29,29.76,9,4,14,0.29
2013-5-24,49,41,34,42,35,31,90,79,64,30.45,30.29,8,2,14,0.00
2013-5-25,54,43,32,44,38,31,97,84,64,30.49,30.34,6,1,14,0.00
2013-5-26,64,46,35,46,39,34,95,78,37,30.42,30.24,5,1,14,0.00
2013-5-27,62,52,41,49,43,37,89,70,52,30.28,30.00,1,0,14,0.00
2013-5-28,59,56,54,58,51,41,99,85,53,30.00,29.75,0,0,14,0.14
2013-5-29,64,53,48,62,53,48,99,98,91,29.94,29.75,4,0,14,0.01
2013-5-30,84,70,58,68,64,57,99,81,52,29.92,29.82,4,1,14,0.00
2013-5-31,75,68,62,67,63,57,99,85,63,29.89,29.73,4,1,14,0.62